Stations météo

réclame
Mon MeteoGroup
Rodkallen, Suède (2188): Température de l'air & dewpoint: 12.10.2019 04:00:00 - 18.10.2019 04:00:00 (CEST)Rodkallen, Suède (2188): Vitesse du vent & gusts: 12.10.2019 04:00:00 - 18.10.2019 04:00:00 (CEST)Rodkallen, Suède (2188): Direction du vent: 12.10.2019 04:00:00 - 18.10.2019 04:00:00 (CEST)Rodkallen, Suède (2188): visibility: 12.10.2019 04:00:00 - 18.10.2019 04:00:00 (CEST)Rodkallen, Suède (2188): Quantités de précipitations: 12.10.2019 04:00:00 - 18.10.2019 04:00:00 (CEST)
Date & Time tt [°C] td [°C] ff [km/h] ff [knt] fx [km/h] fx [knt] dd vv [km] rr [mm]
18.10.2019 04:00:00 - - - - - - - - -
18.10.2019 03:00:00 3,9 1,4 15 8 22 12 SE 50 0,0
18.10.2019 02:00:00 4,0 1,7 18 10 27 15 SSE 50 0,0
18.10.2019 01:00:00 4,1 2,1 21 11 29 16 SSE 50 0,0
18.10.2019 00:00:00 4,4 1,8 20 11 26 14 SE 50 0,0
17.10.2019 23:00:00 4,2 1,2 20 11 27 15 SE 50 0,0
17.10.2019 22:00:00 4,1 1,0 21 12 29 16 ESE 50 0,0
17.10.2019 21:00:00 3,8 0,5 23 13 31 17 ESE 50 0,0
17.10.2019 20:00:00 3,7 0,6 24 13 34 18 E 47 0,0
17.10.2019 19:00:00 3,5 0,9 23 13 31 17 E 50 0,0
17.10.2019 18:00:00 3,4 0,8 24 13 32 17 E 50 0,0
17.10.2019 17:00:00 3,2 0,9 24 13 33 18 E 50 0,0
17.10.2019 16:00:00 3,0 0,7 26 14 35 19 E 50 0,0
17.10.2019 15:00:00 3,0 0,6 29 16 38 21 E 50 0,0
17.10.2019 14:00:00 3,2 0,1 28 15 34 19 E 50 0,0
17.10.2019 13:00:00 3,6 0,1 26 14 37 20 E 50 0,0
17.10.2019 12:00:00 3,7 0,2 28 15 34 19 E 50 0,0
17.10.2019 11:00:00 3,7 0,4 26 14 32 17 E 50 0,0
17.10.2019 10:00:00 1,7 0,8 22 12 31 17 N 8 0,5
17.10.2019 09:00:00 1,6 0,6 29 15 35 19 NNE 31 0,0
17.10.2019 08:00:00 1,1 0,2 26 14 34 19 N 49 0,0
17.10.2019 07:00:00 0,7 -0,2 22 12 32 17 N 3,6 0,1
17.10.2019 06:00:00 0,9 -0,4 24 13 33 18 N 50 0,0
17.10.2019 05:00:00 0,7 -0,5 24 13 32 17 N 50 0,0
17.10.2019 04:00:00 0,6 -0,4 22 12 33 18 N 50 0,0
17.10.2019 03:00:00 -0,1 -1,1 23 13 34 18 NNW 50 0,0
17.10.2019 02:00:00 0,1 -0,9 22 12 36 19 N 50 0,0
17.10.2019 01:00:00 0,3 -0,7 23 12 32 17 NNW 15 0,0
17.10.2019 00:00:00 0,4 -0,6 16 9 23 12 NNW 29 0,0
16.10.2019 23:00:00 0,8 -0,5 14 7 23 12 N 50 0,0
16.10.2019 22:00:00 0,2 -1,1 10 5 16 8 NNW 50 0,0
16.10.2019 21:00:00 0,0 -1,4 11 6 22 12 ENE 50 0,0
16.10.2019 20:00:00 0,0 -1,4 10 5 21 11 NNE 50 0,0
16.10.2019 19:00:00 -0,1 -1,4 12 7 20 11 N 45 0,0
16.10.2019 18:00:00 -0,4 -1,7 10 5 19 10 NNW 50 0,0
16.10.2019 17:00:00 -0,4 -1,5 12 6 21 11 N 50 0,0
16.10.2019 16:00:00 0,1 -0,8 11 6 22 12 N 50 0,0
16.10.2019 15:00:00 0,5 -0,1 13 7 25 14 NNW 50 0,0
16.10.2019 14:00:00 0,4 0,1 16 8 24 13 N 50 0,0
16.10.2019 13:00:00 -0,1 -0,4 13 7 21 12 NNW - 0,0
16.10.2019 12:00:00 -0,3 -0,6 12 6 20 11 NNW - 0,0
16.10.2019 11:00:00 -0,4 -0,7 11 6 19 11 N - 0,0
16.10.2019 10:00:00 -0,6 -0,9 11 6 19 10 NNW - 0,0
16.10.2019 09:00:00 -1,4 -1,7 13 7 22 12 NNW - 0,0
16.10.2019 08:00:00 -0,7 -1,0 12 6 17 9 N - 0,0
16.10.2019 07:00:00 -0,5 -0,9 8 4 15 8 N - 0,0
16.10.2019 06:00:00 -0,5 -0,9 10 5 22 12 N - 0,0
16.10.2019 05:00:00 -1,5 -2,1 12 6 22 12 NW - 0,0
16.10.2019 04:00:00 -2,0 -2,7 16 9 23 12 NW - 0,0
16.10.2019 03:00:00 -1,2 -2,5 18 10 22 12 WNW 0,1 0,0
16.10.2019 02:00:00 -0,4 -1,8 14 8 23 12 W 0,1 0,0
16.10.2019 01:00:00 0,4 -1,4 17 9 24 13 WSW 0,1 0,0
16.10.2019 00:00:00 0,6 -0,5 19 10 24 13 W - 0,0
15.10.2019 23:00:00 1,1 0,2 18 10 22 12 W - 0,0
15.10.2019 22:00:00 1,9 0,7 17 9 22 12 W 0,1 0,0
15.10.2019 21:00:00 3,1 1,6 16 9 23 13 SW 0,1 0,0
15.10.2019 20:00:00 3,5 1,9 17 9 25 13 SW - 0,0
15.10.2019 19:00:00 3,4 1,8 12 6 16 9 WSW 0,1 0,0
15.10.2019 18:00:00 4,2 2,9 13 7 24 13 SW - 0,0
15.10.2019 17:00:00 4,2 2,7 16 9 24 13 SSW 0,1 0,0
15.10.2019 16:00:00 3,8 2,2 17 9 22 12 SSW 0,1 0,0
15.10.2019 15:00:00 3,2 1,2 18 10 23 12 SW 0,1 0,0
15.10.2019 14:00:00 2,6 0,7 21 11 29 16 SW 0,1 0,0
15.10.2019 13:00:00 2,1 0,2 24 13 34 18 SW 0,1 0,0
15.10.2019 12:00:00 1,7 -0,4 27 15 34 19 SSW 0,1 0,0
15.10.2019 11:00:00 1,5 -0,7 20 11 27 14 SW 0,1 0,0
15.10.2019 10:00:00 2,0 -0,4 10 5 16 9 SW 0,1 0,0
15.10.2019 09:00:00 2,2 -0,2 10 5 16 8 SW - 0,0
15.10.2019 08:00:00 2,0 -0,4 5 3 9 5 WSW 0,1 0,0
15.10.2019 07:00:00 1,6 -1,1 5 3 9 5 W 0,1 0,0
15.10.2019 06:00:00 1,7 -1,0 4 2 8 4 W 0,1 0,0
15.10.2019 05:00:00 0,8 -1,4 4 2 14 8 WNW 0,1 0,0
15.10.2019 04:00:00 0,7 -1,7 10 5 15 8 WNW 0,1 0,0
15.10.2019 03:00:00 2,0 -0,9 11 6 16 9 W 0,1 0,0
15.10.2019 02:00:00 2,0 -1,4 10 5 15 8 W 0,1 0,0
15.10.2019 01:00:00 2,0 -1,8 13 7 18 10 WNW 0,1 0,0
15.10.2019 00:00:00 1,6 -2,0 14 7 21 12 WNW 0,1 0,0
14.10.2019 23:00:00 1,7 -2,3 17 9 26 14 WNW 0,1 0,0
14.10.2019 22:00:00 2,1 -2,6 19 11 25 13 WNW 0,1 0,0
14.10.2019 21:00:00 2,2 -3,1 17 9 25 13 NW 0,1 0,0
14.10.2019 20:00:00 2,6 -3,7 18 10 27 15 NW 0,1 0,0
14.10.2019 19:00:00 2,7 -3,0 19 10 29 15 NW 0,1 0,0
14.10.2019 18:00:00 2,9 -2,8 21 11 30 16 WNW 0,1 0,0
14.10.2019 17:00:00 3,0 -2,7 16 9 24 13 NW 0,1 0,0
14.10.2019 16:00:00 3,0 -2,9 16 9 22 12 NW 0,1 0,0
14.10.2019 15:00:00 3,0 -2,3 14 8 27 15 NW 0,1 0,0
14.10.2019 14:00:00 2,9 -2,2 18 10 26 14 NW 0,1 0,0
14.10.2019 13:00:00 2,6 -1,8 16 9 24 13 WNW 0,1 0,0
14.10.2019 12:00:00 2,4 -2,3 16 9 22 12 NW 49 0,0
14.10.2019 11:00:00 2,0 -2,1 14 8 21 12 NW 50 0,0
14.10.2019 10:00:00 1,3 -2,1 14 7 23 12 NW 45 0,0
14.10.2019 09:00:00 0,6 -2,0 15 8 22 12 NW 50 0,0
14.10.2019 08:00:00 0,6 -2,3 12 6 21 11 NW 50 0,0
14.10.2019 07:00:00 0,2 -2,2 13 7 24 13 NW 50 0,0
14.10.2019 06:00:00 0,2 -1,9 15 8 25 14 NW 50 0,0
14.10.2019 05:00:00 0,5 -1,7 17 9 24 13 NW 50 0,0
14.10.2019 04:00:00 0,4 -1,8 16 9 23 13 WNW 50 0,0
14.10.2019 03:00:00 0,7 -2,0 17 9 26 14 WNW 50 0,0
14.10.2019 02:00:00 1,1 -2,3 19 11 29 16 WNW 50 0,0
14.10.2019 01:00:00 1,9 -1,5 23 13 30 16 W 50 0,0
14.10.2019 00:00:00 2,3 -1,9 27 15 36 19 WNW 50 0,0
13.10.2019 23:00:00 2,7 -1,7 29 15 34 18 W 50 0,0
13.10.2019 22:00:00 2,7 -1,7 25 14 31 17 W 50 0,0
13.10.2019 21:00:00 2,7 -1,5 24 13 35 19 WNW 50 0,0
13.10.2019 20:00:00 2,9 -1,3 29 16 35 19 W 50 0,0
13.10.2019 19:00:00 3,0 -1,2 27 15 34 19 W 50 0,0
13.10.2019 18:00:00 2,8 -2,1 27 15 34 19 W 50 0,0
13.10.2019 17:00:00 2,9 -1,1 26 14 31 17 W 50 0,0
13.10.2019 16:00:00 2,9 -1,1 25 13 31 17 W 50 0,0
13.10.2019 15:00:00 2,6 -0,8 19 10 26 14 W 50 0,0
13.10.2019 14:00:00 3,0 -0,8 18 10 24 13 WNW 50 0,0
13.10.2019 13:00:00 2,0 -0,7 16 9 23 12 WNW 47 0,0
13.10.2019 12:00:00 2,0 -0,6 16 8 21 12 WNW 47 0,0
13.10.2019 11:00:00 1,5 -0,9 14 8 24 13 NW 50 0,0
13.10.2019 10:00:00 1,5 -0,9 16 9 24 13 NW 50 0,0
13.10.2019 09:00:00 1,5 -1,4 17 9 28 15 NW 50 0,0
13.10.2019 08:00:00 1,3 -1,8 16 8 24 13 NNW 50 0,0
13.10.2019 07:00:00 1,2 -1,5 16 9 22 12 NW 50 0,0
13.10.2019 06:00:00 1,3 -1,3 14 8 22 12 NW 50 0,0
13.10.2019 05:00:00 1,5 -0,9 13 7 20 11 NNW 50 0,0
13.10.2019 04:00:00 1,7 -1,0 13 7 21 11 NNW 50 0,0
13.10.2019 03:00:00 1,6 -1,1 13 7 18 10 NNW 50 0,0
13.10.2019 02:00:00 1,5 -1,7 15 8 22 12 NNW 50 0,0
13.10.2019 01:00:00 1,4 -2,2 13 7 22 12 NW 50 0,0
13.10.2019 00:00:00 1,5 -2,3 13 7 25 13 NNW 50 0,0
12.10.2019 23:00:00 1,9 -1,7 12 7 24 13 N 50 0,0
12.10.2019 22:00:00 1,9 -1,4 16 8 26 14 NNW 50 0,0
12.10.2019 21:00:00 1,8 -0,6 14 8 26 14 NNW 50 0,0
12.10.2019 20:00:00 1,8 -0,8 14 8 27 15 NNW 15 0,0
12.10.2019 19:00:00 2,4 -1,2 18 10 28 15 NNW 50 0,0
12.10.2019 18:00:00 2,1 -0,7 18 10 33 18 NNW 19 0,0
12.10.2019 17:00:00 2,2 -0,9 21 11 31 17 NNW 50 0,0
12.10.2019 16:00:00 1,9 -0,8 23 12 33 18 NNW 50 0,0
12.10.2019 15:00:00 2,0 -0,6 19 10 34 18 NNW 50 0,0
12.10.2019 14:00:00 1,5 -0,7 21 11 36 19 N 50 0,0
12.10.2019 13:00:00 1,1 -1,0 24 13 35 19 NNW 50 0,0
12.10.2019 12:00:00 0,7 -0,5 22 12 33 18 NNW 3,4 0,0
12.10.2019 11:00:00 0,8 -0,4 20 11 31 17 N 6 -
12.10.2019 10:00:00 0,5 -0,6 20 11 34 18 N 50 0,0
12.10.2019 09:00:00 1,0 -0,3 21 11 31 17 N 50 0,0
12.10.2019 08:00:00 0,7 -0,3 22 12 31 17 N 50 0,0
12.10.2019 07:00:00 0,9 0,0 19 11 29 16 N 50 0,0
12.10.2019 06:00:00 0,8 -0,4 22 12 31 17 N 50 0,0
12.10.2019 05:00:00 1,4 -0,4 19 10 31 17 N 50 0,0
12.10.2019 04:00:00 1,7 -0,1 23 12 32 18 NNE 50 0,0

tt = Température de l'air
td = dewpoint
ff = Vitesse du vent
fx = gusts
dd = Direction du vent
vv = visibility
rr = Quantités de précipitations

stations d'obs. à proximité